Time;durP1;ratioP1;P1;durP2;ratioP2;P2;SDS_P1;SDS_P2;PMS_P1;PMS_P2;Temp;Humidity;BMP_temperature;BMP_pressure;BME280_temperature;BME280_humidity;BME280_pressure;Samples;Min_cycle;Max_cycle;Signal;HPM_P1;HPM_P2
2021/12/17 00:00:05;;;;;;;;;;;21.30;52.50;;;;;;5113150;28;20403;-53
2021/12/17 00:05:07;;;;;;;;;;;21.30;52.40;;;;;;5114105;28;19927;-49
2021/12/17 00:07:35;;;;;;;;;;;21.30;52.50;;;;;;5114590;28;19924;-55
2021/12/17 00:10:07;;;;;;;;;;;21.20;52.40;;;;;;5115177;28;19931;-53
2021/12/17 00:12:34;;;;;;;;;;;21.20;52.40;;;;;;5116736;28;19969;-55
2021/12/17 00:15:02;;;;;;;;;;;21.30;52.40;;;;;;5116782;28;19977;-51
2021/12/17 00:17:34;;;;;;;;;;;21.20;53.00;;;;;;5118136;28;20459;-55
2021/12/17 00:51:14;;;;;;;;;;;21.20;52.40;;;;;;5117558;28;20022;-50
2021/12/17 00:53:17;;;;;;;;;;;21.20;52.40;;;;;;5117233;28;19971;-53
2021/12/17 00:55:44;;;;;;;;;;;21.20;52.40;;;;;;5117405;28;20424;-56
2021/12/17 00:58:11;;;;;;;;;;;21.20;52.40;;;;;;5117373;28;19924;-53
2021/12/17 01:00:38;;;;;;;;;;;21.20;52.40;;;;;;5116810;27;19924;-58
2021/12/17 01:03:06;;;;;;;;;;;21.20;52.40;;;;;;5117577;28;20302;-50
2021/12/17 01:05:33;;;;;;;;;;;21.20;52.40;;;;;;5117528;28;19923;-57
2021/12/17 01:08:01;;;;;;;;;;;21.20;52.40;;;;;;5117489;28;20329;-56
2021/12/17 01:10:31;;;;;;;;;;;21.20;52.40;;;;;;5099131;28;20010;-48
2021/12/17 01:12:58;;;;;;;;;;;21.20;52.40;;;;;;5116910;28;19930;-47
2021/12/17 01:15:25;;;;;;;;;;;21.20;52.40;;;;;;5115898;28;19931;-56
2021/12/17 01:17:56;;;;;;;;;;;21.20;52.40;;;;;;5116945;28;20432;-56
2021/12/17 01:36:52;;;;;;;;;;;21.20;52.40;;;;;;5076348;28;19924;-54
2021/12/17 01:42:05;;;;;;;;;;;21.20;52.40;;;;;;5075875;28;19932;-59
2021/12/17 01:44:37;;;;;;;;;;;21.20;52.40;;;;;;5075925;28;19980;-54
2021/12/17 01:47:06;;;;;;;;;;;21.20;52.40;;;;;;5073427;28;19925;-54
2021/12/17 02:00:07;;;;;;;;;;;21.20;52.40;;;;;;5075916;28;20291;-48
2021/12/17 02:02:41;;;;;;;;;;;21.20;52.40;;;;;;5074593;28;19931;-51
2021/12/17 02:05:09;;;;;;;;;;;21.20;52.40;;;;;;5075853;28;19928;-47
2021/12/17 02:07:37;;;;;;;;;;;21.20;52.40;;;;;;5075705;28;20015;-56
2021/12/17 02:10:37;;;;;;;;;;;21.20;52.40;;;;;;5075707;28;19931;-50
2021/12/17 02:32:00;;;;;;;;;;;21.20;52.40;;;;;;5060699;28;19975;-46
2021/12/17 02:37:15;;;;;;;;;;;21.20;52.40;;;;;;5058353;28;20467;-47
2021/12/17 02:47:40;;;;;;;;;;;21.20;52.40;;;;;;5071264;28;19924;-52
2021/12/17 02:50:08;;;;;;;;;;;21.20;52.40;;;;;;5072512;28;19970;-53
2021/12/17 02:52:37;;;;;;;;;;;21.20;52.40;;;;;;5072258;28;20422;-46
2021/12/17 02:55:05;;;;;;;;;;;21.20;52.40;;;;;;5072611;28;19931;-52
2021/12/17 02:57:33;;;;;;;;;;;21.20;52.40;;;;;;5072365;28;19929;-50
2021/12/17 03:00:03;;;;;;;;;;;21.20;52.40;;;;;;5082266;28;20030;-48
2021/12/17 03:02:31;;;;;;;;;;;21.20;52.40;;;;;;5114249;27;19931;-50
2021/12/17 03:04:59;;;;;;;;;;;21.20;52.40;;;;;;5114919;28;19924;-50
2021/12/17 03:07:27;;;;;;;;;;;21.20;52.40;;;;;;5114849;28;19973;-50
2021/12/17 03:10:12;;;;;;;;;;;21.20;52.40;;;;;;5115903;28;20412;-47
2021/12/17 03:12:50;;;;;;;;;;;21.20;52.40;;;;;;5115431;28;19989;-55
2021/12/17 03:18:56;;;;;;;;;;;21.20;52.40;;;;;;5096725;27;19924;-47
2021/12/17 03:24:03;;;;;;;;;;;21.20;52.40;;;;;;5114765;28;19924;-50
2021/12/17 03:26:31;;;;;;;;;;;21.20;52.40;;;;;;5114854;28;20033;-53
2021/12/17 03:28:59;;;;;;;;;;;21.20;52.40;;;;;;5114499;28;20428;-50
2021/12/17 03:31:26;;;;;;;;;;;21.20;52.40;;;;;;5114407;28;19930;-54
2021/12/17 03:34:02;;;;;;;;;;;21.20;52.40;;;;;;5113672;28;19924;-48
2021/12/17 03:36:31;;;;;;;;;;;21.20;52.40;;;;;;5114361;28;19924;-50
2021/12/17 03:38:58;;;;;;;;;;;21.20;52.40;;;;;;5114351;28;19924;-51
2021/12/17 03:41:34;;;;;;;;;;;21.20;52.40;;;;;;5096363;28;19935;-50
2021/12/17 03:44:02;;;;;;;;;;;21.20;52.40;;;;;;5114676;28;19969;-52
2021/12/17 03:46:29;;;;;;;;;;;21.10;52.40;;;;;;5113452;28;19924;-51
2021/12/17 03:48:56;;;;;;;;;;;21.20;53.00;;;;;;5113087;28;19923;-49
2021/12/17 03:51:24;;;;;;;;;;;21.20;52.40;;;;;;5114529;28;19924;-50
2021/12/17 03:53:53;;;;;;;;;;;21.20;52.50;;;;;;5114005;28;19923;-54
2021/12/17 03:56:21;;;;;;;;;;;21.20;52.40;;;;;;5096947;28;19932;-47
2021/12/17 03:58:49;;;;;;;;;;;21.10;52.30;;;;;;5115016;28;20007;-54
2021/12/17 04:01:18;;;;;;;;;;;21.20;52.40;;;;;;5096464;28;19924;-50
2021/12/17 04:03:45;;;;;;;;;;;21.20;52.40;;;;;;5112884;28;19976;-55
2021/12/17 04:06:13;;;;;;;;;;;21.10;52.30;;;;;;5114085;28;19930;-46
2021/12/17 04:08:39;;;;;;;;;;;21.20;52.40;;;;;;5114894;28;19924;-52
2021/12/17 04:11:08;;;;;;;;;;;21.20;52.40;;;;;;5114061;28;19969;-52
2021/12/17 04:13:38;;;;;;;;;;;21.10;52.30;;;;;;5096268;28;19977;-46
2021/12/17 04:16:10;;;;;;;;;;;21.20;52.40;;;;;;5113924;28;19923;-47
2021/12/17 04:18:40;;;;;;;;;;;21.10;52.30;;;;;;5113146;28;19924;-53
2021/12/17 04:21:13;;;;;;;;;;;21.20;52.40;;;;;;5113751;28;19931;-49
2021/12/17 04:23:41;;;;;;;;;;;21.20;53.00;;;;;;5114106;28;19924;-54
2021/12/17 04:26:09;;;;;;;;;;;21.10;52.30;;;;;;5113919;28;19967;-51
2021/12/17 04:28:41;;;;;;;;;;;21.10;52.30;;;;;;5096687;28;20017;-48
2021/12/17 04:31:08;;;;;;;;;;;21.10;52.30;;;;;;5113868;28;19977;-57
2021/12/17 04:33:38;;;;;;;;;;;21.20;52.40;;;;;;5112852;28;19950;-50
2021/12/17 04:36:06;;;;;;;;;;;21.10;52.30;;;;;;5113725;28;19973;-51
2021/12/17 04:38:33;;;;;;;;;;;21.10;52.30;;;;;;5114101;28;19924;-48
2021/12/17 04:41:32;;;;;;;;;;;21.20;52.40;;;;;;5113735;28;19937;-49
2021/12/17 04:46:43;;;;;;;;;;;21.20;52.40;;;;;;5114036;28;19923;-52
2021/12/17 04:57:42;;;;;;;;;;;21.10;52.30;;;;;;5032060;28;20336;-49
2021/12/17 05:00:16;;;;;;;;;;;21.10;52.30;;;;;;5034753;28;19925;-54
2021/12/17 05:02:47;;;;;;;;;;;21.20;52.40;;;;;;5035543;28;20373;-55
2021/12/17 05:05:15;;;;;;;;;;;21.10;52.30;;;;;;5054604;28;19925;-55
2021/12/17 05:07:47;;;;;;;;;;;21.10;52.30;;;;;;5054653;28;19925;-51
2021/12/17 05:18:15;;;;;;;;;;;21.10;52.30;;;;;;5052918;28;19931;-50
2021/12/17 05:20:49;;;;;;;;;;;21.10;52.30;;;;;;5054093;28;19988;-54
2021/12/17 05:23:16;;;;;;;;;;;21.10;52.30;;;;;;5054103;28;19929;-55
2021/12/17 05:25:44;;;;;;;;;;;21.10;53.00;;;;;;5054211;28;19986;-53
2021/12/17 05:28:11;;;;;;;;;;;21.10;52.30;;;;;;5054159;28;19925;-51
2021/12/17 05:30:40;;;;;;;;;;;21.10;52.30;;;;;;5054112;28;19925;-55
2021/12/17 05:33:07;;;;;;;;;;;21.10;52.30;;;;;;5070652;28;20399;-47
2021/12/17 05:35:34;;;;;;;;;;;21.10;52.30;;;;;;5096473;28;19924;-54
2021/12/17 05:38:01;;;;;;;;;;;21.10;52.30;;;;;;5096584;28;20280;-55
2021/12/17 05:40:28;;;;;;;;;;;21.10;52.30;;;;;;5096245;28;20387;-54
2021/12/17 05:42:59;;;;;;;;;;;21.10;52.30;;;;;;5096064;28;19927;-49
2021/12/17 05:45:37;;;;;;;;;;;21.10;52.30;;;;;;5096155;28;19932;-53
2021/12/17 05:48:06;;;;;;;;;;;21.10;52.30;;;;;;5094851;28;19978;-56
2021/12/17 05:50:34;;;;;;;;;;;21.10;52.30;;;;;;5096349;28;19924;-47
2021/12/17 05:53:01;;;;;;;;;;;21.10;52.30;;;;;;5095814;28;19969;-53
2021/12/17 05:55:28;;;;;;;;;;;21.10;52.30;;;;;;5095835;28;19924;-53
2021/12/17 05:57:55;;;;;;;;;;;21.10;52.30;;;;;;5096219;28;19966;-55
2021/12/17 06:00:23;;;;;;;;;;;21.10;52.30;;;;;;5096164;28;20337;-49
2021/12/17 06:02:51;;;;;;;;;;;21.10;52.30;;;;;;5096087;28;19924;-51
2021/12/17 06:05:19;;;;;;;;;;;21.10;52.30;;;;;;5094805;28;20291;-53
2021/12/17 06:07:46;;;;;;;;;;;21.10;52.30;;;;;;5095686;28;19928;-56
2021/12/17 06:10:13;;;;;;;;;;;21.10;52.30;;;;;;5094795;28;20387;-55
2021/12/17 06:12:40;;;;;;;;;;;21.10;52.30;;;;;;5095760;28;19928;-49
2021/12/17 06:15:08;;;;;;;;;;;21.10;52.40;;;;;;5095859;28;19960;-52
2021/12/17 06:17:36;;;;;;;;;;;21.10;52.30;;;;;;5095440;28;19927;-51
2021/12/17 06:20:04;;;;;;;;;;;21.10;52.30;;;;;;5094195;28;20371;-54
2021/12/17 06:22:32;;;;;;;;;;;21.10;52.30;;;;;;5112722;28;19923;-51
2021/12/17 06:24:59;;;;;;;;;;;21.10;52.30;;;;;;5115996;28;20051;-51
2021/12/17 06:27:26;;;;;;;;;;;21.10;52.30;;;;;;5115671;28;19950;-54
2021/12/17 06:29:53;;;;;;;;;;;21.10;52.30;;;;;;5097608;28;19931;-54
2021/12/17 06:32:21;;;;;;;;;;;21.10;52.30;;;;;;5115448;28;19924;-49
2021/12/17 06:34:48;;;;;;;;;;;21.10;52.30;;;;;;5096307;28;19962;-52
2021/12/17 06:37:16;;;;;;;;;;;21.10;52.30;;;;;;5115380;28;19927;-50
2021/12/17 06:39:44;;;;;;;;;;;21.10;52.30;;;;;;5115373;28;19923;-57
2021/12/17 06:42:11;;;;;;;;;;;21.10;52.30;;;;;;5115203;28;20414;-58
2021/12/17 06:44:39;;;;;;;;;;;21.10;52.30;;;;;;5115577;28;20010;-56
2021/12/17 06:47:29;;;;;;;;;;;21.10;52.40;;;;;;5115177;28;19934;-50
2021/12/17 06:54:38;;;;;;;;;;;21.10;52.30;;;;;;5114376;28;19931;-49
2021/12/17 07:07:27;;;;;;;;;;;21.10;52.40;;;;;;5115214;28;19925;-50
2021/12/17 07:17:25;;;;;;;;;;;21.10;52.30;;;;;;5114675;28;19924;-49
2021/12/17 07:20:49;;;;;;;;;;;21.10;52.30;;;;;;5095505;28;19924;-51
2021/12/17 07:34:04;;;;;;;;;;;21.10;52.30;;;;;;5114790;28;20337;-49
2021/12/17 07:36:40;;;;;;;;;;;21.10;52.30;;;;;;5114087;28;19973;-50
2021/12/17 07:39:08;;;;;;;;;;;21.10;52.30;;;;;;5114706;28;19931;-54
2021/12/17 07:41:35;;;;;;;;;;;21.10;52.30;;;;;;5114203;28;19923;-52
2021/12/17 07:44:02;;;;;;;;;;;21.10;52.30;;;;;;5114266;28;19928;-53
2021/12/17 07:46:30;;;;;;;;;;;21.10;52.30;;;;;;5114257;28;20014;-55
2021/12/17 07:48:57;;;;;;;;;;;21.10;52.30;;;;;;5114126;28;20375;-53
2021/12/17 07:51:25;;;;;;;;;;;21.10;52.30;;;;;;5113288;28;19928;-49
2021/12/17 07:53:54;;;;;;;;;;;21.10;52.30;;;;;;5113973;28;20379;-51
2021/12/17 07:56:24;;;;;;;;;;;21.10;52.20;;;;;;5114070;28;19924;-51
2021/12/17 07:58:51;;;;;;;;;;;21.10;52.20;;;;;;5114347;28;19923;-55
2021/12/17 08:01:19;;;;;;;;;;;21.10;52.20;;;;;;5114098;28;20379;-48
2021/12/17 08:03:47;;;;;;;;;;;21.10;52.20;;;;;;5114014;28;19935;-55
2021/12/17 08:06:14;;;;;;;;;;;21.10;52.10;;;;;;5095169;28;20354;-52
2021/12/17 08:08:41;;;;;;;;;;;21.10;52.10;;;;;;5096056;28;19930;-50
2021/12/17 08:11:08;;;;;;;;;;;21.10;52.10;;;;;;5114240;28;19924;-47
2021/12/17 08:13:36;;;;;;;;;;;21.10;52.10;;;;;;5114018;28;20006;-52
2021/12/17 08:16:17;;;;;;;;;;;21.10;52.10;;;;;;5113908;28;20381;-50
2021/12/17 08:31:31;;;;;;;;;;;21.20;52.20;;;;;;5114137;28;20336;-57
2021/12/17 08:33:58;;;;;;;;;;;21.10;52.10;;;;;;5099478;28;19924;-46
2021/12/17 08:36:25;;;;;;;;;;;21.10;52.10;;;;;;5116397;27;19924;-50
2021/12/17 08:38:52;;;;;;;;;;;21.10;52.10;;;;;;5117729;28;19931;-55
2021/12/17 08:41:21;;;;;;;;;;;21.10;52.10;;;;;;5117517;28;19924;-49
2021/12/17 08:43:48;;;;;;;;;;;21.20;52.20;;;;;;5117638;28;20450;-49
2021/12/17 08:46:15;;;;;;;;;;;21.10;52.10;;;;;;5117925;28;20322;-48
2021/12/17 08:48:42;;;;;;;;;;;21.10;52.10;;;;;;5099514;28;20383;-53
2021/12/17 08:51:10;;;;;;;;;;;21.20;52.10;;;;;;5098528;28;20264;-50
2021/12/17 08:53:37;;;;;;;;;;;21.20;52.10;;;;;;5117509;28;19935;-55
2021/12/17 08:56:05;;;;;;;;;;;21.20;52.10;;;;;;5117417;28;19923;-47
2021/12/17 08:58:33;;;;;;;;;;;21.20;52.10;;;;;;5118494;28;20338;-51
2021/12/17 09:01:04;;;;;;;;;;;21.20;52.00;;;;;;5117402;28;20383;-55
2021/12/17 09:03:32;;;;;;;;;;;21.20;52.00;;;;;;5100110;28;19953;-52
2021/12/17 09:06:00;;;;;;;;;;;21.20;52.00;;;;;;5097932;28;19998;-52
2021/12/17 09:08:27;;;;;;;;;;;21.20;52.10;;;;;;5117475;28;20379;-56
2021/12/17 09:10:58;;;;;;;;;;;21.20;52.10;;;;;;5117313;28;19947;-49
2021/12/17 09:13:25;;;;;;;;;;;21.20;52.00;;;;;;5116924;28;20010;-45
2021/12/17 09:15:57;;;;;;;;;;;21.20;51.90;;;;;;5117072;28;19946;-50
2021/12/17 09:18:25;;;;;;;;;;;21.30;51.90;;;;;;5116766;28;19931;-56
2021/12/17 09:20:52;;;;;;;;;;;21.30;51.90;;;;;;5093950;28;19952;-48
2021/12/17 09:23:19;;;;;;;;;;;21.30;51.90;;;;;;5096586;28;19928;-46
2021/12/17 09:26:06;;;;;;;;;;;21.30;51.90;;;;;;5096478;28;19924;-48
2021/12/17 09:28:47;;;;;;;;;;;21.30;51.90;;;;;;5095871;28;19924;-57
2021/12/17 09:31:23;;;;;;;;;;;21.30;51.90;;;;;;5096121;28;19924;-48
2021/12/17 09:34:03;;;;;;;;;;;21.30;51.90;;;;;;5095839;28;19946;-47
2021/12/17 09:36:39;;;;;;;;;;;21.30;51.90;;;;;;5094788;28;19935;-53
2021/12/17 09:39:18;;;;;;;;;;;21.30;52.00;;;;;;5095626;28;19954;-50
2021/12/17 09:41:56;;;;;;;;;;;21.30;52.00;;;;;;5095656;28;19928;-53
2021/12/17 09:44:30;;;;;;;;;;;21.30;52.00;;;;;;5094566;28;19936;-49
2021/12/17 09:47:02;;;;;;;;;;;21.30;52.00;;;;;;5096037;28;19924;-55
2021/12/17 09:49:40;;;;;;;;;;;21.30;51.90;;;;;;5095584;28;19974;-50
2021/12/17 09:52:12;;;;;;;;;;;21.30;51.90;;;;;;5094441;28;19924;-55
2021/12/17 09:54:47;;;;;;;;;;;21.30;51.90;;;;;;5096030;28;19929;-55
2021/12/17 09:57:14;;;;;;;;;;;21.30;51.90;;;;;;5095831;28;19930;-57
2021/12/17 09:59:46;;;;;;;;;;;21.30;51.90;;;;;;5095760;28;19932;-56
2021/12/17 10:02:26;;;;;;;;;;;21.30;51.80;;;;;;5095002;28;19950;-51
2021/12/17 10:04:58;;;;;;;;;;;21.30;51.80;;;;;;5095449;28;19934;-52
2021/12/17 10:07:28;;;;;;;;;;;21.30;51.80;;;;;;5094764;28;19931;-54
2021/12/17 10:10:01;;;;;;;;;;;21.30;51.80;;;;;;5095583;28;20018;-54
2021/12/17 10:12:33;;;;;;;;;;;21.30;51.70;;;;;;5095755;28;19931;-51
2021/12/17 10:15:06;;;;;;;;;;;21.30;51.70;;;;;;5095484;28;20391;-52
2021/12/17 10:17:37;;;;;;;;;;;21.30;51.60;;;;;;5095386;28;19931;-48
2021/12/17 10:20:05;;;;;;;;;;;21.30;52.20;;;;;;5095434;28;19931;-55
2021/12/17 10:22:33;;;;;;;;;;;21.40;51.60;;;;;;5111524;27;19928;-52
2021/12/17 10:25:02;;;;;;;;;;;21.40;51.60;;;;;;5115726;28;19927;-53
2021/12/17 10:27:31;;;;;;;;;;;21.40;51.50;;;;;;5115965;28;19924;-56
2021/12/17 10:29:58;;;;;;;;;;;21.40;51.50;;;;;;5115567;28;19931;-54
2021/12/17 10:32:26;;;;;;;;;;;21.40;51.50;;;;;;5115509;28;20011;-57
2021/12/17 10:35:01;;;;;;;;;;;21.40;51.40;;;;;;5116390;28;20022;-49
2021/12/17 10:37:35;;;;;;;;;;;21.40;51.40;;;;;;5114704;27;20023;-47
2021/12/17 10:40:16;;;;;;;;;;;21.40;51.30;;;;;;5115795;28;20052;-50
2021/12/17 10:42:59;;;;;;;;;;;21.40;51.30;;;;;;5115576;28;20035;-47
2021/12/17 10:45:28;;;;;;;;;;;21.40;51.20;;;;;;5115673;28;19924;-56
2021/12/17 10:48:19;;;;;;;;;;;21.50;51.20;;;;;;5115520;28;20279;-55
2021/12/17 10:50:46;;;;;;;;;;;21.50;51.10;;;;;;5115673;28;20279;-50
2021/12/17 10:53:13;;;;;;;;;;;21.50;51.10;;;;;;5114083;27;19927;-56
2021/12/17 10:55:43;;;;;;;;;;;21.50;51.00;;;;;;5097963;28;19924;-54
2021/12/17 10:58:10;;;;;;;;;;;21.50;51.00;;;;;;5115315;28;20328;-51
2021/12/17 11:01:09;;;;;;;;;;;21.60;51.00;;;;;;5115376;28;19927;-50
2021/12/17 11:03:41;;;;;;;;;;;21.60;50.90;;;;;;5012580;28;19929;-54
2021/12/17 11:06:08;;;;;;;;;;;21.60;50.90;;;;;;4996567;28;19979;-48
2021/12/17 11:08:37;;;;;;;;;;;21.60;50.80;;;;;;5030665;28;19925;-55
2021/12/17 11:11:09;;;;;;;;;;;21.70;50.80;;;;;;5032188;28;20309;-51
2021/12/17 11:13:37;;;;;;;;;;;21.70;50.70;;;;;;5032414;28;19958;-52
2021/12/17 11:16:04;;;;;;;;;;;21.70;50.70;;;;;;5033082;28;19925;-56
2021/12/17 11:18:31;;;;;;;;;;;21.70;50.70;;;;;;5032081;28;20012;-54
2021/12/17 11:20:58;;;;;;;;;;;21.70;50.60;;;;;;5032186;28;20300;-54
2021/12/17 11:23:27;;;;;;;;;;;21.70;50.50;;;;;;5030513;28;19924;-54
2021/12/17 11:25:54;;;;;;;;;;;21.70;50.50;;;;;;5032157;28;19929;-55
2021/12/17 11:28:24;;;;;;;;;;;21.80;50.50;;;;;;5032053;28;19925;-54
2021/12/17 11:30:51;;;;;;;;;;;21.80;50.40;;;;;;5031970;28;19968;-49
2021/12/17 11:33:19;;;;;;;;;;;21.80;50.40;;;;;;5032101;28;19988;-47
2021/12/17 11:35:48;;;;;;;;;;;21.80;50.30;;;;;;5031959;28;19963;-50
2021/12/17 11:38:19;;;;;;;;;;;21.90;50.30;;;;;;5038360;28;20028;-47
2021/12/17 11:40:52;;;;;;;;;;;21.90;50.30;;;;;;5114403;28;19931;-51
2021/12/17 11:43:24;;;;;;;;;;;21.90;50.20;;;;;;5114355;28;20018;-52
2021/12/17 11:45:59;;;;;;;;;;;21.90;50.10;;;;;;5115169;28;19923;-54
2021/12/17 11:48:26;;;;;;;;;;;21.90;50.10;;;;;;5114249;28;19924;-54
2021/12/17 11:51:12;;;;;;;;;;;21.90;50.10;;;;;;5114243;28;19969;-52
2021/12/17 11:53:40;;;;;;;;;;;21.90;50.10;;;;;;5128618;27;19923;-47
2021/12/17 11:56:07;;;;;;;;;;;21.90;50.10;;;;;;5134742;27;19927;-45
2021/12/17 11:58:41;;;;;;;;;;;21.90;50.10;;;;;;5134590;27;20290;-48
2021/12/17 12:01:08;;;;;;;;;;;21.90;50.10;;;;;;5116772;28;20014;-56
2021/12/17 12:03:35;;;;;;;;;;;22.00;50.10;;;;;;5134979;28;19992;-54
2021/12/17 12:06:02;;;;;;;;;;;21.90;50.00;;;;;;5134963;28;19923;-51
2021/12/17 12:08:47;;;;;;;;;;;22.00;50.10;;;;;;5122020;27;20028;-48
2021/12/17 12:11:19;;;;;;;;;;;22.00;50.10;;;;;;5118583;28;19992;-46
2021/12/17 12:13:47;;;;;;;;;;;22.00;50.10;;;;;;5118578;28;19928;-55
2021/12/17 12:16:37;;;;;;;;;;;22.00;50.20;;;;;;5118545;28;19924;-47
2021/12/17 12:19:08;;;;;;;;;;;22.00;50.20;;;;;;5117785;28;19924;-50
2021/12/17 12:21:39;;;;;;;;;;;22.00;50.10;;;;;;5117933;28;19924;-48
2021/12/17 12:24:12;;;;;;;;;;;22.00;50.10;;;;;;5116646;27;19932;-52
2021/12/17 12:26:42;;;;;;;;;;;22.00;50.10;;;;;;5118250;28;20299;-54
2021/12/17 12:29:10;;;;;;;;;;;22.00;50.10;;;;;;5117968;28;19924;-53
2021/12/17 12:31:39;;;;;;;;;;;22.00;50.10;;;;;;5100027;28;19963;-48
2021/12/17 12:34:10;;;;;;;;;;;22.00;50.10;;;;;;5118745;28;19973;-49
2021/12/17 12:36:58;;;;;;;;;;;22.00;50.10;;;;;;5103074;28;19942;-56
2021/12/17 12:39:38;;;;;;;;;;;22.00;50.10;;;;;;5116532;28;19924;-51
2021/12/17 12:42:16;;;;;;;;;;;22.00;50.10;;;;;;5117637;28;19924;-52
2021/12/17 12:44:46;;;;;;;;;;;22.00;50.10;;;;;;5118028;28;19967;-56
2021/12/17 12:47:34;;;;;;;;;;;22.00;50.10;;;;;;5117994;28;20318;-55
2021/12/17 12:50:06;;;;;;;;;;;22.00;50.10;;;;;;5100448;28;19963;-54
2021/12/17 12:52:40;;;;;;;;;;;21.90;50.10;;;;;;5116127;27;19924;-49
2021/12/17 12:55:12;;;;;;;;;;;21.90;50.10;;;;;;5117862;28;19932;-53
2021/12/17 12:57:41;;;;;;;;;;;21.90;50.10;;;;;;5117373;28;20382;-54
2021/12/17 13:00:14;;;;;;;;;;;21.90;50.10;;;;;;5117698;28;19927;-56
2021/12/17 13:02:42;;;;;;;;;;;21.90;50.20;;;;;;5099367;28;19977;-53
2021/12/17 13:05:10;;;;;;;;;;;21.90;50.20;;;;;;5099244;28;20383;-51
2021/12/17 13:07:41;;;;;;;;;;;21.90;50.20;;;;;;5116073;27;19979;-56
2021/12/17 13:10:11;;;;;;;;;;;21.90;50.30;;;;;;5117583;28;19927;-54
2021/12/17 13:12:38;;;;;;;;;;;21.80;50.20;;;;;;5117388;28;19927;-49
2021/12/17 13:15:18;;;;;;;;;;;21.90;50.30;;;;;;5117081;28;19966;-52
2021/12/17 13:21:16;;;;;;;;;;;21.80;50.20;;;;;;5117080;28;19980;-50
2021/12/17 13:23:49;;;;;;;;;;;21.80;50.20;;;;;;5115559;28;19971;-48
2021/12/17 13:26:18;;;;;;;;;;;21.80;50.20;;;;;;5116954;28;20398;-51
2021/12/17 13:28:47;;;;;;;;;;;21.80;50.20;;;;;;5116831;28;19930;-48
2021/12/17 13:31:30;;;;;;;;;;;21.80;50.30;;;;;;5116777;28;19924;-48
2021/12/17 13:33:57;;;;;;;;;;;21.80;50.30;;;;;;5117019;28;19977;-52
2021/12/17 13:36:25;;;;;;;;;;;21.80;50.30;;;;;;5116661;28;19923;-49
2021/12/17 13:38:56;;;;;;;;;;;21.80;50.30;;;;;;5115571;27;20370;-50
2021/12/17 13:41:37;;;;;;;;;;;21.80;50.30;;;;;;5116378;28;20019;-52
2021/12/17 13:44:04;;;;;;;;;;;21.80;50.30;;;;;;5116413;28;19973;-48
2021/12/17 13:46:34;;;;;;;;;;;21.80;50.30;;;;;;5098737;28;20283;-55
2021/12/17 13:49:01;;;;;;;;;;;21.80;50.40;;;;;;5098579;28;20364;-55
2021/12/17 13:51:28;;;;;;;;;;;21.80;50.40;;;;;;5116375;28;19924;-54
2021/12/17 13:53:57;;;;;;;;;;;21.80;50.40;;;;;;5114872;27;19923;-51
2021/12/17 13:56:37;;;;;;;;;;;21.80;50.40;;;;;;5116336;28;19928;-49
2021/12/17 13:59:04;;;;;;;;;;;21.80;50.60;;;;;;5116200;28;19972;-53
2021/12/17 14:01:35;;;;;;;;;;;21.80;50.60;;;;;;5116242;28;19924;-51
2021/12/17 14:04:11;;;;;;;;;;;21.80;50.60;;;;;;5098086;28;19961;-54
2021/12/17 14:06:50;;;;;;;;;;;21.80;50.60;;;;;;5115990;28;20014;-54
2021/12/17 14:09:18;;;;;;;;;;;21.80;50.60;;;;;;5114700;27;19928;-48
2021/12/17 14:11:46;;;;;;;;;;;21.80;50.50;;;;;;5115575;28;19984;-52
2021/12/17 14:14:34;;;;;;;;;;;21.80;50.50;;;;;;5116399;28;20360;-47
2021/12/17 14:17:03;;;;;;;;;;;21.80;50.50;;;;;;5115741;28;19923;-58
2021/12/17 14:19:42;;;;;;;;;;;21.80;50.60;;;;;;5115617;28;19924;-48
2021/12/17 14:22:20;;;;;;;;;;;21.70;50.50;;;;;;5115383;28;20398;-56
2021/12/17 14:24:47;;;;;;;;;;;21.80;50.70;;;;;;5114693;28;19928;-54
2021/12/17 14:27:14;;;;;;;;;;;21.70;50.70;;;;;;5115723;28;19924;-50
2021/12/17 14:29:41;;;;;;;;;;;21.70;50.70;;;;;;5115826;28;19927;-54
2021/12/17 14:32:15;;;;;;;;;;;21.70;50.70;;;;;;5115169;28;19953;-53
2021/12/17 14:34:42;;;;;;;;;;;21.70;50.70;;;;;;5115587;28;19924;-57
2021/12/17 14:37:09;;;;;;;;;;;21.70;50.80;;;;;;5115515;28;20374;-50
2021/12/17 14:39:40;;;;;;;;;;;21.70;50.80;;;;;;5114240;28;20001;-53
2021/12/17 14:42:08;;;;;;;;;;;21.70;50.80;;;;;;5115371;28;20035;-50
2021/12/17 14:44:45;;;;;;;;;;;21.70;50.80;;;;;;5115365;28;19924;-47
2021/12/17 15:06:13;;;;;;;;;;;21.70;51.00;;;;;;5116149;28;20014;-57
2021/12/17 15:08:40;;;;;;;;;;;21.70;51.00;;;;;;5115285;28;19927;-50
2021/12/17 15:11:15;;;;;;;;;;;21.60;50.90;;;;;;5113522;27;20029;-51
2021/12/17 15:13:42;;;;;;;;;;;21.70;51.00;;;;;;5114865;28;20421;-58
2021/12/17 15:16:09;;;;;;;;;;;21.60;50.90;;;;;;5115086;28;20345;-55
2021/12/17 15:18:37;;;;;;;;;;;21.60;50.90;;;;;;5114964;28;19949;-48
2021/12/17 15:21:04;;;;;;;;;;;21.60;51.00;;;;;;5114533;28;20006;-56
2021/12/17 15:23:31;;;;;;;;;;;21.60;51.00;;;;;;5114488;28;19974;-52
2021/12/17 15:25:58;;;;;;;;;;;21.60;51.00;;;;;;5113761;28;19927;-56
2021/12/17 15:28:27;;;;;;;;;;;21.60;51.10;;;;;;5114616;28;19924;-55
2021/12/17 15:30:56;;;;;;;;;;;21.60;51.10;;;;;;5114861;28;19987;-54
2021/12/17 15:33:23;;;;;;;;;;;21.60;51.10;;;;;;5114801;28;19988;-58
2021/12/17 15:35:51;;;;;;;;;;;21.60;51.10;;;;;;5114463;28;19969;-54
2021/12/17 15:38:18;;;;;;;;;;;21.60;51.10;;;;;;5114362;28;19928;-51
2021/12/17 15:40:47;;;;;;;;;;;21.60;51.10;;;;;;5113169;28;19950;-53
2021/12/17 15:43:15;;;;;;;;;;;21.60;51.10;;;;;;5114365;28;19924;-52
2021/12/17 15:45:43;;;;;;;;;;;21.60;51.10;;;;;;5114667;28;20294;-54
2021/12/17 15:48:11;;;;;;;;;;;21.60;51.20;;;;;;5114321;28;20375;-49
2021/12/17 15:50:58;;;;;;;;;;;21.60;51.20;;;;;;5114555;28;19972;-53
2021/12/17 15:53:25;;;;;;;;;;;21.50;51.10;;;;;;5114373;28;19924;-56
2021/12/17 15:55:52;;;;;;;;;;;21.60;51.20;;;;;;5113007;28;19968;-58
2021/12/17 15:58:19;;;;;;;;;;;21.50;51.20;;;;;;5114090;28;19924;-52
2021/12/17 16:00:48;;;;;;;;;;;21.50;51.20;;;;;;5114135;28;20010;-51
2021/12/17 16:03:19;;;;;;;;;;;21.50;51.20;;;;;;5114432;28;19947;-53
2021/12/17 16:05:46;;;;;;;;;;;21.50;51.20;;;;;;5097064;28;20010;-47
2021/12/17 16:08:14;;;;;;;;;;;21.50;51.20;;;;;;5114406;28;19931;-57
2021/12/17 16:21:00;;;;;;;;;;;21.50;51.30;;;;;;5114297;28;19923;-54
2021/12/17 16:21:45;;;;;;;;;;;21.50;51.30;;;;;;5114169;28;19923;-53
2021/12/17 16:24:13;;;;;;;;;;;21.50;51.30;;;;;;5113808;28;19931;-55
2021/12/17 16:26:39;;;;;;;;;;;21.50;51.30;;;;;;5113019;28;19924;-51
2021/12/17 16:29:08;;;;;;;;;;;21.50;51.30;;;;;;5113927;28;19924;-51
2021/12/17 16:31:35;;;;;;;;;;;21.50;51.40;;;;;;5114238;28;19924;-53
2021/12/17 16:34:03;;;;;;;;;;;21.50;51.40;;;;;;5113855;28;19924;-48
2021/12/17 16:36:30;;;;;;;;;;;21.50;51.40;;;;;;5114147;28;19923;-56
2021/12/17 16:38:58;;;;;;;;;;;21.50;51.40;;;;;;5113683;28;19923;-48
2021/12/17 16:41:25;;;;;;;;;;;21.50;51.40;;;;;;5094689;28;20019;-56
2021/12/17 16:43:59;;;;;;;;;;;21.40;51.30;;;;;;5114068;28;19959;-54
2021/12/17 16:49:04;;;;;;;;;;;21.40;51.40;;;;;;5114088;28;19923;-54
2021/12/17 16:51:31;;;;;;;;;;;21.40;51.40;;;;;;5113625;28;19923;-51
2021/12/17 16:53:58;;;;;;;;;;;21.40;51.40;;;;;;5114844;28;20421;-53
2021/12/17 16:56:26;;;;;;;;;;;21.40;51.40;;;;;;5116669;27;20014;-50
2021/12/17 16:58:54;;;;;;;;;;;21.40;51.40;;;;;;5118228;28;19949;-57
2021/12/17 17:01:22;;;;;;;;;;;21.40;51.40;;;;;;5099871;28;20011;-54
2021/12/17 17:03:49;;;;;;;;;;;21.40;51.40;;;;;;5117349;28;20409;-56
2021/12/17 17:06:16;;;;;;;;;;;21.40;51.40;;;;;;5117648;28;19992;-47
2021/12/17 17:08:44;;;;;;;;;;;21.40;51.50;;;;;;5117301;28;19927;-50
2021/12/17 17:11:14;;;;;;;;;;;21.40;51.50;;;;;;5115952;27;19976;-52
2021/12/17 17:13:42;;;;;;;;;;;21.40;51.50;;;;;;5117518;28;19969;-53
2021/12/17 17:16:09;;;;;;;;;;;21.40;51.50;;;;;;5117119;28;19986;-56
2021/12/17 17:18:37;;;;;;;;;;;21.40;51.50;;;;;;5117281;28;19969;-53
2021/12/17 17:21:06;;;;;;;;;;;21.40;51.50;;;;;;5116878;28;19928;-50
2021/12/17 17:23:35;;;;;;;;;;;21.40;51.50;;;;;;5098797;28;19924;-56
2021/12/17 17:26:02;;;;;;;;;;;21.40;51.50;;;;;;5115952;27;19970;-51
2021/12/17 17:28:29;;;;;;;;;;;21.40;51.50;;;;;;5098905;28;19923;-53
2021/12/17 17:30:56;;;;;;;;;;;21.40;51.50;;;;;;5117165;28;20339;-52
2021/12/17 17:33:27;;;;;;;;;;;21.40;51.50;;;;;;5117090;28;20292;-56
2021/12/17 17:35:54;;;;;;;;;;;21.40;51.60;;;;;;5117054;28;19962;-53
2021/12/17 17:38:21;;;;;;;;;;;21.40;51.60;;;;;;5098927;28;19969;-51
2021/12/17 17:40:50;;;;;;;;;;;21.40;51.60;;;;;;5115462;27;19932;-57
2021/12/17 17:43:18;;;;;;;;;;;21.40;51.60;;;;;;5116929;28;19946;-53
2021/12/17 17:45:45;;;;;;;;;;;21.40;51.60;;;;;;5116567;28;19953;-54
2021/12/17 17:48:14;;;;;;;;;;;21.40;51.60;;;;;;5116850;28;20010;-48
2021/12/17 17:50:41;;;;;;;;;;;21.40;51.60;;;;;;5116439;28;19924;-46